Terminal Aerodrome Forecast
Issued by NWS Tuscon, AZ

Home | Current Version | Previous Version | Text Only | Print | Product List | Glossary On
Versions: 1 2 3 4 5 6 7 8 9 10 11 12
181
FTUS45 KTWC 270535
TAFDUG
TAF
KDUG 270535Z 2706/2806 33009KT P6SM SCT250
     FM271100 VRB04KT P6SM SCT250
     FM271700 20008KT P6SM SCT250
     FM272000 24017G25KT P6SM FEW250
     FM280200 28011KT P6SM FEW250=

USA.gov is the U.S. government's official web portal to all federal, state and local government web resources and services.